createdAt,value
2022-10-28T00:01:10.109Z,20.10
2022-10-28T00:03:42.004Z,20.06
2022-10-28T00:06:16.226Z,20.04
2022-10-28T00:08:44.329Z,20.00
2022-10-28T00:11:13.695Z,19.94
2022-10-28T00:13:41.429Z,19.90
2022-10-28T00:16:16.798Z,19.86
2022-10-28T00:18:43.818Z,19.86
2022-10-28T00:21:13.985Z,19.82
2022-10-28T00:23:40.889Z,19.81
2022-10-28T00:26:22.087Z,19.79
2022-10-28T00:28:53.348Z,19.77
2022-10-28T00:31:22.480Z,19.73
2022-10-28T00:33:49.661Z,19.71
2022-10-28T00:36:20.871Z,19.67
2022-10-28T00:38:48.611Z,19.65
2022-10-28T00:41:37.298Z,19.63
2022-10-28T00:44:43.348Z,19.60
2022-10-28T00:47:52.965Z,19.59
2022-10-28T00:50:42.322Z,19.57
2022-10-28T00:53:21.956Z,19.56
2022-10-28T00:55:49.954Z,19.52
2022-10-28T00:58:18.913Z,19.51
2022-10-28T01:00:45.382Z,19.50
2022-10-28T01:03:12.682Z,19.48
2022-10-28T01:05:42.064Z,19.48
2022-10-28T01:08:09.216Z,19.47
2022-10-28T01:10:40.927Z,19.45
2022-10-28T01:13:07.322Z,19.42
2022-10-28T01:15:59.898Z,19.38
2022-10-28T01:18:47.687Z,19.34
2022-10-28T01:21:32.498Z,19.29
2022-10-28T01:23:58.895Z,19.26
2022-10-28T01:26:46.678Z,19.22
2022-10-28T01:29:42.902Z,19.19
2022-10-28T01:32:36.039Z,19.16
2022-10-28T01:35:43.963Z,19.16
2022-10-28T01:38:41.571Z,19.17
2022-10-28T01:41:28.245Z,19.16
2022-10-28T01:44:26.876Z,19.14
2022-10-28T01:47:02.125Z,19.14
2022-10-28T01:49:40.839Z,19.12
2022-10-28T01:52:12.953Z,19.12
2022-10-28T01:54:44.343Z,19.11
2022-10-28T01:57:14.898Z,19.11
2022-10-28T01:59:43.191Z,19.08
2022-10-28T02:02:09.663Z,19.09
2022-10-28T02:04:37.077Z,19.08
2022-10-28T02:07:04.998Z,19.09
2022-10-28T02:09:59.888Z,19.09
2022-10-28T02:12:35.425Z,19.10
2022-10-28T02:15:14.568Z,19.09
2022-10-28T02:17:58.117Z,19.09
2022-10-28T02:20:33.581Z,19.08
2022-10-28T02:23:31.628Z,19.07
2022-10-28T02:26:13.698Z,19.09
2022-10-28T02:29:12.718Z,19.08
2022-10-28T02:31:50.321Z,19.09
2022-10-28T02:34:33.813Z,19.09
2022-10-28T02:37:06.904Z,19.09
2022-10-28T02:39:40.015Z,19.08
2022-10-28T02:42:14.611Z,19.05
2022-10-28T02:44:48.990Z,19.02
2022-10-28T02:47:20.804Z,18.99
2022-10-28T02:49:52.513Z,18.96
2022-10-28T02:52:22.753Z,18.93
2022-10-28T02:54:56.300Z,18.92
2022-10-28T02:57:29.738Z,18.91
2022-10-28T02:59:58.720Z,18.92
2022-10-28T03:02:25.602Z,18.93
2022-10-28T03:04:54.298Z,18.94
2022-10-28T03:07:21.028Z,18.94
2022-10-28T03:09:47.497Z,18.93
2022-10-28T03:12:14.200Z,18.91
2022-10-28T03:14:45.504Z,18.89
2022-10-28T03:17:12.012Z,18.86
2022-10-28T03:19:38.489Z,18.79
2022-10-28T03:22:05.208Z,18.75
2022-10-28T03:24:33.033Z,18.73
2022-10-28T03:26:59.871Z,18.71
2022-10-28T03:29:26.352Z,18.69
2022-10-28T03:31:52.780Z,18.66
2022-10-28T03:34:21.051Z,18.63
2022-10-28T03:36:47.543Z,18.61
2022-10-28T03:39:14.304Z,18.58
2022-10-28T03:41:40.801Z,18.56
2022-10-28T03:44:11.460Z,18.56
2022-10-28T03:46:38.238Z,18.56
2022-10-28T03:49:04.759Z,18.56
2022-10-28T03:51:31.254Z,18.55
2022-10-28T03:53:57.925Z,18.57
2022-10-28T03:56:26.066Z,18.56
2022-10-28T04:01:24.037Z,18.54
2022-10-28T04:03:50.590Z,18.51
2022-10-28T04:06:19.051Z,18.50
2022-10-28T04:08:45.519Z,18.48
2022-10-28T04:11:12.002Z,18.46
2022-10-28T04:13:38.478Z,18.43
2022-10-28T04:16:09.506Z,18.40
2022-10-28T04:18:36.012Z,18.42
2022-10-28T04:21:03.597Z,18.40
2022-10-28T04:23:30.082Z,18.37
2022-10-28T04:25:57.979Z,18.33
2022-10-28T04:28:24.442Z,18.34
2022-10-28T04:30:50.955Z,18.36
2022-10-28T04:33:17.468Z,18.35
2022-10-28T04:35:45.111Z,18.33
2022-10-28T04:38:15.248Z,18.28
2022-10-28T04:40:41.963Z,18.26
2022-10-28T04:43:10.072Z,18.24
2022-10-28T04:45:40.062Z,18.21
2022-10-28T04:48:06.697Z,18.16
2022-10-28T04:50:33.166Z,18.13
2022-10-28T04:52:59.659Z,18.15
2022-10-28T04:55:30.387Z,18.17
2022-10-28T04:57:58.845Z,18.23
2022-10-28T05:00:27.521Z,18.26
2022-10-28T05:02:54.735Z,18.28
2022-10-28T05:05:22.132Z,18.29
2022-10-28T05:07:48.674Z,18.29
2022-10-28T05:10:18.238Z,18.28
2022-10-28T05:12:47.353Z,18.30
2022-10-28T05:15:19.176Z,18.32
2022-10-28T05:17:47.276Z,18.33
2022-10-28T05:20:16.265Z,18.36
2022-10-28T05:22:53.956Z,18.38
2022-10-28T05:25:25.212Z,18.39
2022-10-28T05:27:52.080Z,18.39
2022-10-28T05:30:19.354Z,18.40
2022-10-28T05:32:47.429Z,18.40
2022-10-28T05:35:16.987Z,18.41
2022-10-28T05:37:43.881Z,18.45
2022-10-28T05:40:11.093Z,18.45
2022-10-28T05:42:44.384Z,18.46
2022-10-28T05:45:13.998Z,18.46
2022-10-28T05:47:49.352Z,18.48
2022-10-28T05:50:16.942Z,18.50
2022-10-28T05:52:48.182Z,18.52
2022-10-28T05:55:15.418Z,18.50
2022-10-28T05:57:41.947Z,18.46
2022-10-28T06:00:09.403Z,18.41
2022-10-28T06:02:42.709Z,18.38
2022-10-28T06:05:11.573Z,18.39
2022-10-28T06:07:39.746Z,18.40
2022-10-28T06:10:08.139Z,18.39
2022-10-28T06:15:05.621Z,18.39
2022-10-28T06:17:32.130Z,18.40
2022-10-28T06:19:58.623Z,18.42
2022-10-28T06:22:25.161Z,18.42
2022-10-28T06:24:53.533Z,18.43
2022-10-28T06:27:20.025Z,18.43
2022-10-28T06:29:46.491Z,18.44
2022-10-28T06:32:12.991Z,18.43
2022-10-28T06:34:40.461Z,18.45
2022-10-28T06:37:08.856Z,18.43
2022-10-28T06:39:36.937Z,18.42
2022-10-28T06:42:03.462Z,18.43
2022-10-28T06:44:31.470Z,18.42
2022-10-28T06:46:59.451Z,18.41
2022-10-28T06:49:25.915Z,18.41
2022-10-28T06:51:52.387Z,18.43
2022-10-28T06:54:23.138Z,18.46
2022-10-28T06:56:49.690Z,18.48
2022-10-28T06:59:16.315Z,18.50
2022-10-28T07:01:42.930Z,18.55
2022-10-28T07:04:14.068Z,18.58
2022-10-28T07:06:41.184Z,18.63
2022-10-28T07:09:07.958Z,18.66
2022-10-28T07:11:34.496Z,18.71
2022-10-28T07:14:17.579Z,18.76
2022-10-28T07:16:44.043Z,18.81
2022-10-28T07:19:10.628Z,18.86
2022-10-28T07:21:37.114Z,18.90
2022-10-28T07:24:13.853Z,18.94
2022-10-28T07:26:42.523Z,18.99
2022-10-28T07:29:09.078Z,19.03
2022-10-28T07:31:35.556Z,19.10
2022-10-28T07:34:09.716Z,19.15
2022-10-28T07:36:36.382Z,19.21
2022-10-28T07:39:02.972Z,19.27
2022-10-28T07:41:29.472Z,19.33
2022-10-28T07:43:56.130Z,19.41
2022-10-28T07:46:24.224Z,19.48
2022-10-28T07:48:50.689Z,19.57
2022-10-28T07:51:17.197Z,19.63
2022-10-28T07:53:43.684Z,19.72
2022-10-28T07:56:15.695Z,19.80
2022-10-28T07:58:43.972Z,19.89
2022-10-28T08:01:12.740Z,19.98
2022-10-28T08:03:39.889Z,20.10
2022-10-28T08:06:12.333Z,20.22
2022-10-28T08:08:39.776Z,20.34
2022-10-28T08:11:13.663Z,20.43
2022-10-28T08:13:40.519Z,20.54
2022-10-28T08:16:08.171Z,20.65
2022-10-28T08:18:35.895Z,20.74
2022-10-28T08:21:04.251Z,20.85
2022-10-28T08:23:30.827Z,20.94
2022-10-28T08:25:58.415Z,21.06
2022-10-28T08:28:25.005Z,21.19
2022-10-28T08:31:04.183Z,21.33
2022-10-28T08:33:39.598Z,21.50
2022-10-28T08:36:07.289Z,21.66
2022-10-28T08:38:34.005Z,21.83
2022-10-28T08:41:19.059Z,21.94
2022-10-28T08:44:24.675Z,22.09
2022-10-28T08:47:15.153Z,22.26
2022-10-28T08:49:45.809Z,22.37
2022-10-28T08:52:33.073Z,22.47
2022-10-28T08:55:13.770Z,22.54
2022-10-28T08:58:02.096Z,22.59
2022-10-28T09:00:32.370Z,22.64
2022-10-28T09:03:07.686Z,22.69
2022-10-28T09:05:41.033Z,22.78
2022-10-28T09:08:20.183Z,22.86
2022-10-28T09:11:05.328Z,22.96
2022-10-28T09:13:50.312Z,23.12
2022-10-28T09:16:46.228Z,23.25
2022-10-28T09:19:23.336Z,23.39
2022-10-28T09:22:22.414Z,23.54
2022-10-28T09:25:30.786Z,23.62
2022-10-28T09:28:32.682Z,23.64
2022-10-28T09:31:10.893Z,23.66
2022-10-28T09:33:43.482Z,23.66
2022-10-28T09:36:18.647Z,23.66
2022-10-28T09:38:45.554Z,23.69
2022-10-28T09:41:20.016Z,23.75
2022-10-28T09:43:54.708Z,23.79
2022-10-28T09:46:23.781Z,23.87
2022-10-28T09:48:55.658Z,23.99
2022-10-28T09:51:52.663Z,24.13
2022-10-28T09:54:29.907Z,24.29
2022-10-28T09:56:56.376Z,24.40
2022-10-28T09:59:22.853Z,24.48
2022-10-28T10:01:50.042Z,24.52
2022-10-28T10:04:23.271Z,24.53
2022-10-28T10:06:54.881Z,24.55
2022-10-28T10:09:26.197Z,24.58
2022-10-28T10:11:56.963Z,24.61
2022-10-28T10:14:30.729Z,24.68
2022-10-28T10:17:05.287Z,24.78
2022-10-28T10:19:56.813Z,24.87
2022-10-28T10:22:33.737Z,24.97
2022-10-28T10:25:01.039Z,25.06
2022-10-28T10:27:30.244Z,25.16
2022-10-28T10:30:19.207Z,25.27
2022-10-28T10:32:47.702Z,25.40
2022-10-28T10:35:41.888Z,25.49
2022-10-28T10:38:15.441Z,25.58
2022-10-28T10:40:50.224Z,25.61
2022-10-28T10:43:20.564Z,25.67
2022-10-28T10:46:00.800Z,25.74
2022-10-28T10:48:29.229Z,25.83
2022-10-28T10:50:56.663Z,25.91
2022-10-28T10:53:28.882Z,26.00
2022-10-28T10:56:26.280Z,26.08
2022-10-28T10:58:55.046Z,26.17
2022-10-28T11:01:26.960Z,26.24
2022-10-28T11:06:38.388Z,26.38
2022-10-28T11:09:17.671Z,26.47
2022-10-28T11:11:44.168Z,26.56
2022-10-28T11:14:26.098Z,26.65
2022-10-28T11:16:57.494Z,26.72
2022-10-28T11:19:28.456Z,26.80
2022-10-28T11:22:13.414Z,26.89
2022-10-28T11:25:07.813Z,26.97
2022-10-28T11:27:39.291Z,27.04
2022-10-28T11:30:13.745Z,27.10
2022-10-28T11:32:54.562Z,27.15
2022-10-28T11:36:03.035Z,27.22
2022-10-28T11:39:04.785Z,27.26
2022-10-28T11:41:50.408Z,27.23
2022-10-28T11:44:45.538Z,27.19
2022-10-28T11:47:24.344Z,27.19
2022-10-28T11:50:36.386Z,27.18
2022-10-28T11:53:25.755Z,27.20
2022-10-28T11:56:11.493Z,27.20
2022-10-28T11:58:51.417Z,27.20
2022-10-28T12:01:26.932Z,27.19
2022-10-28T12:04:32.320Z,27.16
2022-10-28T12:07:22.776Z,27.10
2022-10-28T12:10:09.609Z,27.03
2022-10-28T12:12:43.895Z,26.97
2022-10-28T12:15:50.042Z,26.92
2022-10-28T12:18:27.584Z,26.93
2022-10-28T12:21:03.132Z,26.95
2022-10-28T12:23:33.864Z,26.99
2022-10-28T12:26:05.727Z,26.99
2022-10-28T12:28:37.737Z,26.97
2022-10-28T12:31:20.460Z,26.95
2022-10-28T12:33:51.589Z,26.94
2022-10-28T12:36:32.022Z,26.92
2022-10-28T12:39:04.293Z,26.92
2022-10-28T12:41:46.709Z,26.88
2022-10-28T12:44:18.709Z,26.90
2022-10-28T12:46:57.417Z,26.90
2022-10-28T12:49:35.732Z,26.93
2022-10-28T12:52:15.276Z,27.00
2022-10-28T12:55:26.838Z,27.03
2022-10-28T12:58:36.622Z,27.07
2022-10-28T13:01:14.353Z,27.07
2022-10-28T13:03:41.039Z,27.04
2022-10-28T13:06:49.261Z,26.99
2022-10-28T13:09:46.619Z,26.94
2022-10-28T13:12:34.620Z,26.90
2022-10-28T13:15:19.447Z,26.84
2022-10-28T13:17:55.182Z,26.80
2022-10-28T13:20:48.277Z,26.75
2022-10-28T13:23:36.589Z,26.68
2022-10-28T13:26:27.878Z,26.61
2022-10-28T13:28:57.928Z,26.55
2022-10-28T13:31:40.336Z,26.47
2022-10-28T13:34:10.990Z,26.44
2022-10-28T13:36:42.642Z,26.40
2022-10-28T13:39:26.020Z,26.37
2022-10-28T13:42:14.815Z,26.33
2022-10-28T13:44:58.729Z,26.26
2022-10-28T13:47:37.609Z,26.20
2022-10-28T13:50:10.911Z,26.15
2022-10-28T13:52:39.966Z,26.12
2022-10-28T13:55:18.817Z,26.07
2022-10-28T13:57:48.497Z,26.06
2022-10-28T14:00:17.840Z,26.05
2022-10-28T14:02:49.248Z,26.05
2022-10-28T14:05:19.475Z,26.03
2022-10-28T14:07:58.604Z,26.03
2022-10-28T14:10:27.813Z,26.00
2022-10-28T14:13:00.510Z,25.97
2022-10-28T14:15:41.599Z,25.94
2022-10-28T14:18:41.677Z,25.93
2022-10-28T14:21:01.774Z,25.92
2022-10-28T14:23:28.475Z,25.90
2022-10-28T14:26:05.032Z,25.88
2022-10-28T14:28:31.533Z,25.86
2022-10-28T14:31:09.939Z,25.85
2022-10-28T14:33:45.516Z,25.83
2022-10-28T14:36:19.599Z,25.84
2022-10-28T14:39:01.157Z,25.83
2022-10-28T14:41:58.789Z,25.81
2022-10-28T14:45:06.904Z,25.79
2022-10-28T14:47:57.429Z,25.75
2022-10-28T14:50:43.847Z,25.72
2022-10-28T14:53:31.876Z,25.65
2022-10-28T14:56:05.947Z,25.64
2022-10-28T14:58:37.988Z,25.61
2022-10-28T15:01:07.576Z,25.57
2022-10-28T15:03:34.131Z,25.54
2022-10-28T15:06:23.680Z,25.49
2022-10-28T15:08:50.541Z,25.50
2022-10-28T15:11:17.653Z,25.48
2022-10-28T15:13:44.259Z,25.45
2022-10-28T15:16:23.866Z,25.41
2022-10-28T15:18:53.615Z,25.36
2022-10-28T15:21:22.279Z,25.30
2022-10-28T15:24:16.040Z,25.29
2022-10-28T15:26:42.580Z,25.29
2022-10-28T15:29:09.792Z,25.26
2022-10-28T15:32:13.764Z,25.21
2022-10-28T15:34:44.646Z,25.17
2022-10-28T15:37:17.679Z,25.12
2022-10-28T15:39:49.184Z,25.10
2022-10-28T15:42:42.201Z,25.01
2022-10-28T15:45:24.180Z,24.93
2022-10-28T15:47:51.942Z,24.86
2022-10-28T15:50:18.539Z,24.77
2022-10-28T15:52:48.149Z,24.69
2022-10-28T15:55:41.637Z,24.59
2022-10-28T15:58:19.537Z,24.50
2022-10-28T16:00:57.316Z,24.39
2022-10-28T16:03:40.306Z,24.32
2022-10-28T16:06:38.776Z,24.23
2022-10-28T16:09:15.823Z,24.18
2022-10-28T16:11:56.560Z,24.09
2022-10-28T16:14:31.229Z,24.06
2022-10-28T16:19:45.826Z,24.00
2022-10-28T16:22:14.232Z,23.98
2022-10-28T16:24:45.475Z,23.96
2022-10-28T16:27:21.628Z,23.92
2022-10-28T16:29:48.779Z,23.88
2022-10-28T16:32:16.180Z,23.84
2022-10-28T16:34:46.731Z,23.81
2022-10-28T16:37:27.129Z,23.74
2022-10-28T16:39:54.218Z,23.68
2022-10-28T16:42:22.104Z,23.59
2022-10-28T16:44:49.124Z,23.50
2022-10-28T16:47:17.916Z,23.41
2022-10-28T16:49:45.208Z,23.34
2022-10-28T16:52:19.988Z,23.28
2022-10-28T16:54:50.849Z,23.19
2022-10-28T16:57:19.392Z,23.09
2022-10-28T16:59:46.652Z,22.99
2022-10-28T17:02:35.256Z,22.91
2022-10-28T17:05:07.292Z,22.86
2022-10-28T17:07:33.789Z,22.78
2022-10-28T17:10:00.269Z,22.70
2022-10-28T17:12:27.743Z,22.65
2022-10-28T17:14:55.573Z,22.63
2022-10-28T17:17:22.059Z,22.62
2022-10-28T17:19:48.595Z,22.59
2022-10-28T17:22:15.145Z,22.57
2022-10-28T17:24:43.505Z,22.55
2022-10-28T17:27:10.005Z,22.50
2022-10-28T17:29:36.633Z,22.46
2022-10-28T17:32:03.345Z,22.45
2022-10-28T17:34:30.529Z,22.41
2022-10-28T17:36:57.037Z,22.38
2022-10-28T17:39:26.431Z,22.34
2022-10-28T17:41:53.397Z,22.30
2022-10-28T17:44:23.005Z,22.24
2022-10-28T17:46:49.867Z,22.16
2022-10-28T17:49:16.587Z,22.09
2022-10-28T17:51:43.615Z,22.01
2022-10-28T17:54:14.503Z,21.94
2022-10-28T17:56:42.141Z,21.88
2022-10-28T17:59:09.202Z,21.84
2022-10-28T18:01:35.821Z,21.80
2022-10-28T18:04:07.209Z,21.76
2022-10-28T18:06:34.227Z,21.73
2022-10-28T18:09:00.982Z,21.71
2022-10-28T18:11:27.708Z,21.69
2022-10-28T18:13:55.902Z,21.67
2022-10-28T18:16:25.316Z,21.60
2022-10-28T18:18:53.258Z,21.53
2022-10-28T18:21:20.627Z,21.49
2022-10-28T18:23:57.030Z,21.42
2022-10-28T18:26:27.767Z,21.39
2022-10-28T18:28:54.629Z,21.38
2022-10-28T18:31:21.185Z,21.33
2022-10-28T18:33:49.116Z,21.28
2022-10-28T18:36:22.044Z,21.24
2022-10-28T18:38:49.505Z,21.22
2022-10-28T18:41:18.576Z,21.16
2022-10-28T18:43:45.489Z,21.13
2022-10-28T18:46:14.490Z,21.09
2022-10-28T18:48:41.209Z,21.03
2022-10-28T18:51:10.931Z,20.96
2022-10-28T18:53:39.649Z,20.91
2022-10-28T18:56:08.500Z,20.88
2022-10-28T18:58:35.346Z,20.86
2022-10-28T19:01:10.095Z,20.83
2022-10-28T19:03:37.391Z,20.83
2022-10-28T19:06:07.117Z,20.84
2022-10-28T19:08:33.979Z,20.84
2022-10-28T19:11:01.774Z,20.84
2022-10-28T19:13:28.340Z,20.82
2022-10-28T19:15:55.151Z,20.80
2022-10-28T19:18:22.043Z,20.79
2022-10-28T19:20:48.781Z,20.81
2022-10-28T19:23:15.232Z,20.80
2022-10-28T19:25:42.509Z,20.82
2022-10-28T19:28:09.017Z,20.81
2022-10-28T19:30:36.203Z,20.79
2022-10-28T19:33:02.670Z,20.77
2022-10-28T19:35:29.414Z,20.75
2022-10-28T19:37:55.941Z,20.72
2022-10-28T19:40:22.402Z,20.69
2022-10-28T19:45:28.820Z,20.66
2022-10-28T19:47:55.593Z,20.63
2022-10-28T19:50:22.260Z,20.58
2022-10-28T19:52:48.724Z,20.57
2022-10-28T19:55:19.381Z,20.56
2022-10-28T19:57:47.809Z,20.52
2022-10-28T20:00:17.081Z,20.46
2022-10-28T20:02:43.644Z,20.44
2022-10-28T20:05:10.222Z,20.40
2022-10-28T20:07:36.700Z,20.38
2022-10-28T20:10:03.304Z,20.38
2022-10-28T20:12:29.791Z,20.35
2022-10-28T20:14:56.339Z,20.31
2022-10-28T20:17:22.862Z,20.26
2022-10-28T20:19:49.370Z,20.22
2022-10-28T20:22:17.239Z,20.19
2022-10-28T20:24:45.329Z,20.17
2022-10-28T20:27:11.792Z,20.15
2022-10-28T20:29:38.236Z,20.11
2022-10-28T20:32:04.695Z,20.11
2022-10-28T20:34:35.010Z,20.08
2022-10-28T20:37:01.516Z,20.09
2022-10-28T20:39:28.008Z,20.08
2022-10-28T20:41:54.513Z,20.07
2022-10-28T20:44:25.292Z,20.07
2022-10-28T20:46:51.807Z,20.06
2022-10-28T20:49:18.276Z,20.05
2022-10-28T20:51:44.838Z,20.04
2022-10-28T20:54:20.568Z,19.98
2022-10-28T20:56:47.118Z,19.95
2022-10-28T20:59:13.560Z,19.90
2022-10-28T21:01:40.876Z,19.86
2022-10-28T21:04:12.121Z,19.84
2022-10-28T21:06:39.236Z,19.80
2022-10-28T21:09:06.479Z,19.82
2022-10-28T21:11:33.075Z,19.82
2022-10-28T21:14:03.360Z,19.80
2022-10-28T21:16:30.408Z,19.80
2022-10-28T21:18:59.042Z,19.78
2022-10-28T21:21:25.640Z,19.75
2022-10-28T21:23:52.574Z,19.70
2022-10-28T21:26:19.558Z,19.66
2022-10-28T21:28:52.649Z,19.61
2022-10-28T21:31:20.813Z,19.58
2022-10-28T21:33:47.655Z,19.51
2022-10-28T21:36:19.921Z,19.45
2022-10-28T21:38:47.201Z,19.36
2022-10-28T21:41:17.143Z,19.32
2022-10-28T21:43:47.670Z,19.30
2022-10-28T21:46:18.944Z,19.28
2022-10-28T21:48:46.084Z,19.27
2022-10-28T21:51:15.257Z,19.22
2022-10-28T21:53:43.336Z,19.15
2022-10-28T21:56:18.514Z,19.12
2022-10-28T21:58:46.931Z,19.12
2022-10-28T22:01:19.319Z,19.10
2022-10-28T22:03:46.256Z,19.10
2022-10-28T22:06:13.026Z,19.09
2022-10-28T22:08:39.620Z,19.07
2022-10-28T22:11:17.504Z,19.05
2022-10-28T22:13:44.124Z,19.05
2022-10-28T22:16:12.779Z,19.02
2022-10-28T22:18:39.357Z,19.01
2022-10-28T22:21:15.437Z,19.01
2022-10-28T22:23:42.088Z,19.00
2022-10-28T22:26:12.374Z,18.99
2022-10-28T22:28:38.933Z,18.95
2022-10-28T22:31:08.229Z,18.94
2022-10-28T22:33:35.579Z,18.95
2022-10-28T22:36:09.804Z,18.95
2022-10-28T22:38:36.384Z,18.95
2022-10-28T22:41:04.532Z,18.95
2022-10-28T22:43:31.287Z,18.95
2022-10-28T22:45:59.868Z,18.96
2022-10-28T22:48:27.329Z,18.96
2022-10-28T22:50:54.061Z,18.96
2022-10-28T22:53:20.606Z,18.95
2022-10-28T22:55:47.522Z,18.95
2022-10-28T22:58:15.685Z,18.93
2022-10-28T23:00:42.420Z,18.92
2022-10-28T23:03:08.989Z,18.91
2022-10-28T23:05:36.817Z,18.92
2022-10-28T23:08:04.052Z,18.92
2022-10-28T23:10:30.757Z,18.91
2022-10-28T23:12:58.682Z,18.88
2022-10-28T23:15:30.068Z,18.85
2022-10-28T23:17:56.735Z,18.79
2022-10-28T23:20:24.951Z,18.76
2022-10-28T23:22:54.637Z,18.74
2022-10-28T23:25:21.216Z,18.71
2022-10-28T23:27:47.654Z,18.67
2022-10-28T23:30:14.125Z,18.66
2022-10-28T23:32:40.584Z,18.67
2022-10-28T23:35:08.275Z,18.68
2022-10-28T23:37:34.865Z,18.66
2022-10-28T23:40:01.455Z,18.63
2022-10-28T23:42:28.256Z,18.57
2022-10-28T23:44:57.497Z,18.51
2022-10-28T23:47:23.986Z,18.46
2022-10-28T23:49:50.454Z,18.42
2022-10-28T23:52:16.908Z,18.39
2022-10-28T23:54:46.252Z,18.39
2022-10-28T23:57:12.863Z,18.39
2022-10-28T23:59:39.387Z,18.41
